Time;durP1;ratioP1;P1;durP2;ratioP2;P2;SDS_P1;SDS_P2;PMS_P1;PMS_P2;Temp;Humidity;BMP_temperature;BMP_pressure;BME280_temperature;BME280_humidity;BME280_pressure;Samples;Min_cycle;Max_cycle;Signal;HPM_P1;HPM_P2
2024/01/30 00:21:50;;;;;;;;;;;;;;;;;;;;;
2024/01/30 02:55:20;;;;;;;;;;;;;;;;;;;;;
2024/01/30 03:44:05;;;;;;;;;;;;;;;;;;;;;
2024/01/30 04:03:55;;;;;;;;;;;;;;;;;;;;;
2024/01/30 06:00:39;;;;;;;;;;;;;;;;;;;;;
2024/01/30 06:09:35;;;;;;;;;;;;;;;;;;;;;
2024/01/30 06:13:15;;;;;;;66.00;34.50;;;;;;;2.02;100.00;102034.86;109397;1273;22010;-79
2024/01/30 06:19:57;;;;;;;45.70;29.60;;;;;;;1.68;100.00;102043.98;108598;1282;22018;-79
2024/01/30 06:23:06;;;;;;;52.50;31.10;;;;;;;1.53;100.00;102049.76;108771;1277;24379;-80
2024/01/30 06:26:08;;;;;;;55.40;32.90;;;;;;;1.43;100.00;102053.09;108853;1276;22020;-78
2024/01/30 06:33:37;;;;;;;;;;;;;;;;;;;;;
2024/01/30 06:36:49;;;;;;;39.10;28.60;;;;;;;1.18;100.00;102062.19;108912;1276;21997;-78
2024/01/30 06:39:54;;;;;;;44.10;31.40;;;;;;;1.17;100.00;102062.66;108853;1274;22764;-78
2024/01/30 06:44:14;;;;;;;;;;;;;;;;;;;;;
2024/01/30 06:47:28;;;;;;;;;;;;;;;;;;;;;
2024/01/30 06:55:08;;;;;;;101.30;64.90;;;;;;;1.13;100.00;102068.05;110758;1260;21946;-79
2024/01/30 07:06:45;;;;;;;77.70;43.10;;;;;;;1.12;100.00;102064.94;110035;1266;22923;-81
2024/01/30 07:09:44;;;;;;;81.40;40.70;;;;;;;1.25;100.00;102073.36;109861;1266;21998;-81
2024/01/30 07:12:59;;;;;;;68.30;39.70;;;;;;;1.31;100.00;102072.16;109867;1266;23005;-82
2024/01/30 07:16:15;;;;;;;56.70;34.00;;;;;;;1.35;100.00;102068.32;110267;1262;22002;-83
2024/01/30 07:20:37;;;;;;;;;;;;;;;;;;;;;
2024/01/30 07:25:53;;;;;;;;;;;;;;;;;;;;;
2024/01/30 07:29:22;;;;;;;;;;;;;;;;;;;;;
2024/01/30 07:51:37;;;;;;;52.40;36.10;;;;;;;2.86;100.00;102059.45;107499;1298;22101;-82
2024/01/30 07:55:31;;;;;;;;;;;;;;;;;;;;;
2024/01/30 07:59:30;;;;;;;;;;;;;;;;;;;;;
2024/01/30 08:21:56;;;;;;;55.70;46.30;;;;;;;3.81;100.00;102059.21;111508;1254;23594;-82
2024/01/30 08:25:37;;;;;;;;;;;;;;;;;;;;;
2024/01/30 08:29:02;;;;;;;82.10;68.40;;;;;;;3.44;100.00;102052.17;110938;1259;22792;-79
2024/01/30 08:32:10;;;;;;;81.20;60.30;;;;;;;3.47;100.00;102051.89;110858;1259;22002;-80
2024/01/30 08:35:08;;;;;;;58.30;48.50;;;;;;;3.52;100.00;102044.05;110561;1259;21967;-80
2024/01/30 08:37:50;;;;;;;55.20;43.80;;;;;;;3.57;100.00;102043.46;110386;1264;23748;-80
2024/01/30 08:40:30;;;;;;;50.40;40.80;;;;;;;3.63;100.00;102040.98;110811;1258;22002;-82
2024/01/30 08:44:23;;;;;;;;;;;;;;;;;;;;;
2024/01/30 08:47:37;;;;;;;52.60;47.00;;;;;;;3.83;100.00;102049.60;110677;1263;24331;-81
2024/01/30 08:50:18;;;;;;;53.40;44.80;;;;;;;3.95;100.00;102044.81;109936;1266;21993;-82
2024/01/30 08:52:49;;;;;;;54.90;49.00;;;;;;;4.14;100.00;102040.80;109721;1266;21935;-82
2024/01/30 08:55:30;;;;;;;52.50;46.50;;;;;;;4.41;100.00;102036.04;109828;1260;23710;-82
2024/01/30 08:58:27;;;;;;;71.20;44.20;;;;;;;4.70;100.00;102033.52;111319;1250;23022;-80
2024/01/30 09:05:34;;;;;;;39.80;32.70;;;;;;;5.01;100.00;102029.25;112263;1243;22013;-81
2024/01/30 09:08:44;;;;;;;45.10;36.10;;;;;;;5.16;100.00;102025.80;112354;1243;23788;-82
2024/01/30 09:12:09;;;;;;;34.00;25.90;;;;;;;5.36;100.00;102019.64;112342;1243;21954;-80
2024/01/30 09:15:11;;;;;;;29.50;23.40;;;;;;;5.50;100.00;102018.22;112215;1244;21954;-81
2024/01/30 09:18:12;;;;;;;53.10;27.20;;;;;;;5.60;100.00;102018.49;112537;1242;21953;-80
2024/01/30 09:21:54;;;;;;;;;;;;;;;;;;;;;
2024/01/30 09:25:19;;;;;;;33.30;25.00;;;;;;;5.86;100.00;102017.52;111500;1252;21948;-81
2024/01/30 09:28:47;;;;;;;28.80;23.80;;;;;;;5.86;100.00;102017.33;111624;1251;22615;-81
2024/01/30 09:32:27;;;;;;;;;;;;;;;;;;;;;
2024/01/30 09:35:52;;;;;;;28.90;25.00;;;;;;;6.02;100.00;102001.07;111654;1251;21968;-80
2024/01/30 09:39:49;;;;;;;36.80;30.00;;;;;;;6.23;100.00;102014.53;111614;1248;23024;-83
2024/01/30 09:42:51;;;;;;;35.50;30.10;;;;;;;6.31;100.00;102008.88;111325;1253;21972;-81
2024/01/30 09:46:32;;;;;;;;;;;;;;;;;;;;;
2024/01/30 09:50:02;;;;;;;40.30;31.80;;;;;;;6.73;100.00;102002.71;112368;1244;22283;-81
2024/01/30 09:53:23;;;;;;;46.30;30.20;;;;;;;7.03;100.00;101996.09;111484;1253;23058;-82
2024/01/30 09:56:47;;;;;;;32.30;25.20;;;;;;;7.27;100.00;101993.53;111911;1247;22091;-83
2024/01/30 10:00:08;;;;;;;37.00;29.60;;;;;;;7.44;100.00;101986.65;111870;1247;23028;-81
2024/01/30 10:03:57;;;;;;;35.00;26.50;;;;;;;7.69;100.00;101987.19;111020;1259;22037;-82
2024/01/30 10:08:00;;;;;;;33.50;25.40;;;;;;;7.80;100.00;101967.61;110913;1259;22960;-82
2024/01/30 10:16:31;;;;;;;;;;;;;;;;;;;;;
2024/01/30 10:20:42;;;;;;;27.60;16.10;;;;;;;8.55;100.00;101967.99;109817;1269;22014;-82
2024/01/30 10:27:33;;;;;;;24.40;16.40;;;;;;;8.91;100.00;101959.50;110023;1266;23045;-78
2024/01/30 10:34:21;;;;;;;21.00;14.50;;;;;;;9.19;100.00;101950.67;109727;1267;22032;-76
2024/01/30 10:37:31;;;;;;;;;;;;;;;;;;;;;
2024/01/30 10:40:26;;;;;;;17.50;13.10;;;;;;;9.09;100.00;101946.73;110349;1263;21972;-77
2024/01/30 10:43:16;;;;;;;20.90;15.10;;;;;;;8.98;100.00;101943.34;110147;1263;23208;-74
2024/01/30 10:49:56;;;;;;;31.70;19.90;;;;;;;8.71;100.00;101935.83;110964;1257;23113;-73
2024/01/30 10:56:03;;;;;;;26.90;19.10;;;;;;;8.51;100.00;101928.97;111560;1250;22310;-72
2024/01/30 10:58:43;;;;;;;26.10;18.70;;;;;;;8.45;100.00;101931.42;111655;1246;22087;-72
2024/01/30 11:01:30;;;;;;;27.40;20.70;;;;;;;8.42;100.00;101927.60;112636;1239;22110;-73
2024/01/30 11:04:07;;;;;;;24.40;18.10;;;;;;;8.37;100.00;101924.15;112682;1239;22698;-72
2024/01/30 11:06:45;;;;;;;;;;;;;;;8.35;100.00;101925.89;112725;1239;21969;-74
2024/01/30 11:10:42;;;;;;;;;;;;;;;;;;;;;
2024/01/30 11:14:45;;;;;;;23.60;18.70;;;;;;;8.12;100.00;101921.43;112084;1244;22109;-74
2024/01/30 11:18:09;;;;;;;29.60;19.10;;;;;;;8.10;100.00;101918.48;111385;1251;21971;-75
2024/01/30 11:21:16;;;;;;;27.10;19.90;;;;;;;8.09;100.00;101920.40;111307;1251;22920;-74
2024/01/30 11:24:19;;;;;;;35.40;22.80;;;;;;;8.09;100.00;101915.38;111348;1251;21963;-76
2024/01/30 11:27:26;;;;;;;31.20;20.60;;;;;;;8.06;100.00;101913.13;111442;1251;23687;-74
2024/01/30 11:30:08;;;;;;;31.90;20.30;;;;;;;8.03;100.00;101910.02;111270;1251;22730;-74
2024/01/30 11:32:43;;;;;;;32.90;21.30;;;;;;;8.03;100.00;101909.14;110658;1257;22920;-74
2024/01/30 11:35:18;;;;;;;33.60;22.00;;;;;;;8.02;100.00;101905.68;110256;1263;21975;-73
2024/01/30 11:37:54;;;;;;;30.60;21.30;;;;;;;7.98;100.00;101903.95;110265;1263;21974;-74
2024/01/30 11:40:31;;;;;;;35.50;26.30;;;;;;;7.96;100.00;101902.76;110266;1263;23621;-73
2024/01/30 11:43:09;;;;;;;41.20;30.50;;;;;;;7.93;100.00;101893.58;109908;1266;21989;-74
2024/01/30 11:45:44;;;;;;;30.40;22.60;;;;;;;7.91;100.00;101888.02;109919;1266;23042;-75
2024/01/30 11:48:33;;;;;;;26.30;21.20;;;;;;;7.89;100.00;101886.98;109922;1260;21999;-75
2024/01/30 11:51:05;;;;;;;27.30;21.70;;;;;;;7.87;100.00;101880.58;111944;1242;21940;-74
2024/01/30 11:53:44;;;;;;;30.80;19.70;;;;;;;7.86;100.00;101874.86;112675;1235;23668;-75
2024/01/30 11:56:43;;;;;;;29.90;19.00;;;;;;;7.82;100.00;101869.16;113028;1235;21956;-73
2024/01/30 11:59:39;;;;;;;26.10;17.90;;;;;;;7.78;100.00;101867.95;113051;1232;21953;-75
2024/01/30 12:02:37;;;;;;;37.10;19.70;;;;;;;7.76;100.00;101865.00;112965;1237;21943;-75
2024/01/30 12:05:42;;;;;;;39.20;22.80;;;;;;;7.75;100.00;101862.41;112961;1237;21938;-76
2024/01/30 12:08:45;;;;;;;29.90;20.30;;;;;;;7.76;100.00;101861.02;112410;1241;22086;-77
2024/01/30 12:11:49;;;;;;;27.20;21.30;;;;;;;7.77;100.00;101861.89;112158;1241;21945;-77
2024/01/30 12:16:17;;;;;;;30.10;20.70;;;;;;;7.77;100.00;101858.25;112394;1241;21987;-77
2024/01/30 12:20:50;;;;;;;31.40;22.20;;;;;;;7.80;100.00;101858.93;111869;1242;22998;-78
2024/01/30 12:24:43;;;;;;;;;;;;;;;;;;;;;
2024/01/30 12:28:26;;;;;;;33.20;24.30;;;;;;;7.99;100.00;101855.23;112011;1244;23034;-73
2024/01/30 12:37:46;;;;;;;25.80;21.90;;;;;;;8.05;100.00;101846.90;111168;1255;22079;-77
2024/01/30 12:46:31;;;;;;;;;;;;;;;;;;;;;
2024/01/30 12:55:33;;;;;;;;;;;;;;;;;;;;;
2024/01/30 12:59:43;;;;;;;;;;;;;;;;;;;;;
2024/01/30 13:07:59;;;;;;;;;;;;;;;;;;;;;
2024/01/30 13:22:22;;;;;;;31.60;24.10;;;;;;;9.88;100.00;101813.27;111090;1259;547704;-79
2024/01/30 13:26:30;;;;;;;37.50;21.60;;;;;;;9.87;100.00;101813.96;107417;1252;21984;-80
2024/01/30 13:30:16;;;;;;;40.80;23.90;;;;;;;9.43;100.00;101813.75;111101;1255;22864;-77
2024/01/30 13:34:13;;;;;;;;;;;;;;;;;;;;;
2024/01/30 13:38:08;;;;;;;;;;;;;;;;;;;;;
2024/01/30 13:41:33;;;;;;;35.50;16.10;;;;;;;9.12;100.00;101796.83;108965;1279;22264;-79
2024/01/30 13:45:11;;;;;;;30.80;19.60;;;;;;;9.13;100.00;101793.88;109404;1272;21997;-79
2024/01/30 13:48:04;;;;;;;23.70;17.30;;;;;;;9.12;100.00;101793.70;109322;1271;22172;-77
2024/01/30 13:50:59;;;;;;;;;;;;;;;;;;;;;
2024/01/30 13:54:39;;;;;;;31.50;19.10;;;;;;;9.03;100.00;101793.09;110017;1264;21983;-77
2024/01/30 14:01:48;;;;;;;26.70;16.20;;;;;;;8.86;100.00;101788.70;109600;1265;22548;-78
2024/01/30 14:09:21;;;;;;;;;;;;;;;;;;;;;
2024/01/30 14:12:37;;;;;;;;;;;;;;;;;;;;;
2024/01/30 14:24:07;;;;;;;24.80;15.30;;;;;;;8.59;100.00;101772.07;109088;1278;23732;-78
2024/01/30 14:38:39;;;;;;;29.80;20.70;;;;;;;9.74;100.00;101772.95;110665;1255;548121;-78
2024/01/30 14:42:31;;;;;;;41.80;26.40;;;;;;;9.64;100.00;101778.23;111217;1254;21957;-80
2024/01/30 14:46:31;;;;;;;41.00;25.50;;;;;;;9.16;100.00;101780.64;112576;1236;21941;-78
2024/01/30 14:50:22;;;;;;;47.70;27.50;;;;;;;8.88;100.00;101781.93;111278;1253;23233;-79
2024/01/30 14:58:02;;;;;;;;;;;;;;;;;;;;;
2024/01/30 15:17:35;;;;;;;;;;;;;;;;;;;;;
2024/01/30 15:21:32;;;;;;;;;;;;;;;;;;;;;
2024/01/30 15:25:34;;;;;;;38.60;28.70;;;;;;;8.74;100.00;101785.67;109720;1276;22720;-78
2024/01/30 15:30:49;;;;;;;;;;;;;;;;;;;;;
2024/01/30 15:35:16;;;;;;;60.80;37.70;;;;;;;8.20;100.00;101783.71;108439;1289;23061;-78
2024/01/30 15:39:22;;;;;;;;;;;;;;;;;;;;;
2024/01/30 16:00:16;;;;;;;77.30;48.50;;;;;;;7.43;100.00;101787.79;107166;1271;3134706;-78
2024/01/30 16:03:46;;;;;;;60.10;39.10;;;;;;;7.41;100.00;101787.11;109600;1271;23821;-78
2024/01/30 16:06:35;;;;;;;58.00;39.20;;;;;;;7.35;100.00;101785.56;109271;1273;21989;-78
2024/01/30 16:10:11;;;;;;;;;;;;;;;;;;;;;
2024/01/30 16:13:41;;;;;;;59.20;36.50;;;;;;;7.13;100.00;101786.63;110469;1265;23842;-77
2024/01/30 16:16:40;;;;;;;56.30;35.90;;;;;;;7.05;100.00;101790.26;109542;1271;23036;-77
2024/01/30 16:19:53;;;;;;;;;;;;;;;;;;;;;
2024/01/30 16:23:09;;;;;;;59.50;39.00;;;;;;;6.90;100.00;101793.54;108752;1278;23176;-76
2024/01/30 16:27:04;;;;;;;78.30;46.20;;;;;;;6.80;100.00;101794.76;108389;1285;22019;-81
2024/01/30 16:31:18;;;;;;;79.50;52.80;;;;;;;6.68;100.00;101792.67;108800;1285;22040;-79
2024/01/30 16:35:00;;;;;;;93.50;59.60;;;;;;;6.57;100.00;101790.22;108561;1277;22009;-80
2024/01/30 16:39:31;;;;;;;;;;;;;;;;;;;;;
2024/01/30 16:42:12;;;;;;;86.10;54.00;;;;;;;6.43;100.00;101794.17;108122;1287;23071;-76
2024/01/30 16:45:32;;;;;;;75.10;50.60;;;;;;;6.34;100.00;101797.61;108279;1283;23763;-77
2024/01/30 16:48:35;;;;;;;67.80;48.40;;;;;;;6.24;100.00;101795.51;108459;1283;23334;-77
2024/01/30 16:51:29;;;;;;;97.30;69.60;;;;;;;6.19;100.00;101798.41;108420;1284;22957;-80
2024/01/30 16:54:16;;;;;;;147.90;103.60;;;;;;;6.16;100.00;101797.55;108456;1284;22014;-79
2024/01/30 16:57:01;;;;;;;116.50;85.20;;;;;;;6.11;100.00;101790.80;108520;1278;21994;-78
2024/01/30 16:59:50;;;;;;;96.30;72.70;;;;;;;6.06;100.00;101793.20;108634;1279;22066;-78
2024/01/30 17:03:12;;;;;;;102.70;73.60;;;;;;;5.98;100.00;101796.59;108990;1279;23078;-79
2024/01/30 17:06:59;;;;;;;113.50;80.20;;;;;;;5.93;100.00;101796.91;108652;1279;23048;-78
2024/01/30 17:10:00;;;;;;;;;;;;;;;;;;;;;
2024/01/30 17:12:49;;;;;;;86.90;58.10;;;;;;;5.85;100.00;101794.10;108453;1283;21999;-79
2024/01/30 17:16:02;;;;;;;97.70;62.10;;;;;;;5.81;100.00;101795.81;108683;1280;23627;-78
2024/01/30 17:23:12;;;;;;;67.40;41.60;;;;;;;5.74;100.00;101798.71;108656;1279;23117;-79
2024/01/30 17:26:02;;;;;;;73.20;46.60;;;;;;;5.72;100.00;101794.56;108711;1280;22001;-78
2024/01/30 17:28:54;;;;;;;79.20;50.90;;;;;;;5.75;100.00;101794.40;108585;1280;24334;-79
2024/01/30 17:31:48;;;;;;;59.50;42.90;;;;;;;5.75;100.00;101790.60;108622;1280;23632;-80
2024/01/30 17:34:42;;;;;;;74.90;53.70;;;;;;;5.73;100.00;101787.99;108693;1277;23144;-79
2024/01/30 17:37:42;;;;;;;67.50;48.10;;;;;;;5.68;100.00;101787.63;108826;1278;22040;-79
2024/01/30 17:41:12;;;;;;;;;;;;;;;;;;;;;
2024/01/30 17:43:57;;;;;;;85.90;61.00;;;;;;;5.58;100.00;101778.77;108914;1278;22017;-79
2024/01/30 17:46:37;;;;;;;72.10;54.70;;;;;;;5.55;100.00;101770.98;109013;1268;22058;-79
2024/01/30 17:49:38;;;;;;;75.60;57.20;;;;;;;5.50;100.00;101774.39;109371;1273;23085;-77
2024/01/30 17:52:29;;;;;;;65.90;53.90;;;;;;;5.46;100.00;101774.56;108860;1277;23763;-80
2024/01/30 17:55:29;;;;;;;52.50;43.20;;;;;;;5.42;100.00;101775.73;108563;1282;21994;-79
2024/01/30 17:58:23;;;;;;;63.70;49.00;;;;;;;5.37;100.00;101772.77;108534;1276;21985;-81
2024/01/30 18:01:18;;;;;;;70.00;49.70;;;;;;;5.30;100.00;101766.34;109564;1267;21975;-78
2024/01/30 18:04:17;;;;;;;;;;;;;;;5.23;100.00;101766.98;110217;1267;23596;-78
2024/01/30 18:07:18;;;;;;;74.50;52.80;;;;;;;5.00;100.00;101754.55;109760;1270;22517;-79
2024/01/30 18:09:59;;;;;;;84.20;60.70;;;;;;;4.96;100.00;101761.59;109760;1267;23721;-80
2024/01/30 18:13:04;;;;;;;90.50;57.50;;;;;;;5.01;100.00;101766.29;110276;1261;22937;-80
2024/01/30 18:16:00;;;;;;;60.40;41.80;;;;;;;4.97;100.00;101763.69;110521;1254;21983;-79
2024/01/30 18:19:05;;;;;;;70.20;44.20;;;;;;;4.94;100.00;101763.48;110422;1261;23033;-79
2024/01/30 18:22:26;;;;;;;179.30;51.70;;;;;;;4.91;100.00;101761.05;110557;1261;23705;-79
2024/01/30 18:26:00;;;;;;;;;;;;;;;;;;;;;
2024/01/30 18:29:24;;;;;;;70.70;44.70;;;;;;;4.85;100.00;101753.58;111022;1258;21976;-82
2024/01/30 18:41:27;;;;;;;69.10;46.40;;;;;;;4.57;100.00;101747.98;108208;1291;23747;-81
2024/01/30 18:55:07;;;;;;;;;;;;;;;;;;;;;
2024/01/30 18:59:09;;;;;;;72.90;56.30;;;;;;;4.42;100.00;101740.08;108402;1288;22261;-80
2024/01/30 19:10:50;;;;;;;;;;;;;;;;;;;;;
2024/01/30 19:58:54;;;;;;;95.90;74.90;;;;;;;5.66;100.00;101748.91;110783;1260;549784;-84
2024/01/30 20:02:47;;;;;;;68.70;48.90;;;;;;;5.60;100.00;101750.26;108513;1260;21964;-83
2024/01/30 20:07:51;;;;;;;;;;;;;;;;;;;;;
2024/01/30 20:12:53;;;;;;;;;;;;;;;;;;;;;
2024/01/30 20:17:04;;;;;;;;;;;;;;;;;;;;;
2024/01/30 20:20:50;;;;;;;;;;;;;;;;;;;;;
2024/01/30 20:25:02;;;;;;;;;;;;;;;;;;;;;
2024/01/30 20:40:17;;;;;;;;;;;;;;;;;;;;;
2024/01/30 21:10:36;;;;;;;70.50;46.20;;;;;;;5.11;100.00;101767.42;110503;1256;547864;-86
2024/01/30 21:14:36;;;;;;;;;;;;;;;;;;;;;
2024/01/30 21:18:39;;;;;;;71.40;46.90;;;;;;;4.33;100.00;101775.84;111759;1252;22748;-83
2024/01/30 21:22:31;;;;;;;80.50;52.00;;;;;;;4.05;100.00;101780.36;111037;1257;22082;-82
2024/01/30 21:25:40;;;;;;;82.00;52.20;;;;;;;3.83;100.00;101782.48;110817;1256;22738;-82
2024/01/30 21:34:03;;;;;;;99.20;53.00;;;;;;;3.37;100.00;101781.52;109767;1268;22030;-81
2024/01/30 21:37:21;;;;;;;86.60;53.00;;;;;;;3.24;100.00;101781.50;108801;1281;22035;-81
2024/01/30 21:40:45;;;;;;;74.10;48.50;;;;;;;3.20;100.00;101782.30;108764;1281;21985;-80
2024/01/30 21:44:32;;;;;;;;;;;;;;;;;;;;;
2024/01/30 21:47:26;;;;;;;89.20;57.00;;;;;;;3.13;100.00;101779.61;109132;1278;22651;-82
2024/01/30 21:50:55;;;;;;;97.00;63.10;;;;;;;3.11;100.00;101772.86;109578;1270;23789;-82
2024/01/30 21:54:49;;;;;;;134.50;85.90;;;;;;;3.03;100.00;101768.27;109780;1270;22325;-80
2024/01/30 21:58:45;;;;;;;;;;;;;;;;;;;;;
2024/01/30 22:01:50;;;;;;;82.70;50.20;;;;;;;2.99;100.00;101777.14;108664;1282;22759;-81
2024/01/30 22:16:26;;;;;;;64.90;48.30;;;;;;;4.39;100.00;101770.50;110666;1252;548356;-83
2024/01/30 22:20:50;;;;;;;67.10;48.80;;;;;;;4.44;100.00;101766.97;105095;1237;10194512;-82
2024/01/30 22:24:35;;;;;;;72.40;47.20;;;;;;;3.95;100.00;101767.66;111660;1252;22835;-81
2024/01/30 22:29:13;;;;;;;69.80;47.00;;;;;;;3.81;100.00;101774.19;111202;1254;21959;-84
2024/01/30 22:33:12;;;;;;;;;;;;;;;;;;;;;
2024/01/30 23:02:34;;;;;;;;;;;;;;;;;;;;;
2024/01/30 23:34:57;;;;;;;;;;;;;;;;;;;;;
